sensor_id;sensor_type;location;lat;lon;timestamp;temperature;humidity
62904;DHT22;49000;50.698;13.322;2023-02-28T00:01:24;-3.70;99.90
62904;DHT22;49000;50.698;13.322;2023-02-28T00:03:50;-3.60;99.90
62904;DHT22;49000;50.698;13.322;2023-02-28T00:06:16;-3.70;99.90
62904;DHT22;49000;50.698;13.322;2023-02-28T00:08:42;-3.70;99.90
62904;DHT22;49000;50.698;13.322;2023-02-28T00:11:10;-3.80;99.90
62904;DHT22;49000;50.698;13.322;2023-02-28T00:13:39;-3.80;99.90
62904;DHT22;49000;50.698;13.322;2023-02-28T00:16:10;-3.50;99.90
62904;DHT22;49000;50.698;13.322;2023-02-28T00:18:36;-3.80;99.90
62904;DHT22;49000;50.698;13.322;2023-02-28T00:21:02;-4.20;99.90
62904;DHT22;49000;50.698;13.322;2023-02-28T00:23:28;-3.90;99.90
62904;DHT22;49000;50.698;13.322;2023-02-28T00:25:54;-3.80;99.90
62904;DHT22;49000;50.698;13.322;2023-02-28T00:28:20;-3.60;99.90
62904;DHT22;49000;50.698;13.322;2023-02-28T00:30:46;-3.90;99.90
62904;DHT22;49000;50.698;13.322;2023-02-28T00:33:12;-4.00;99.90
62904;DHT22;49000;50.698;13.322;2023-02-28T00:35:38;-4.10;99.90
62904;DHT22;49000;50.698;13.322;2023-02-28T00:38:03;-4.50;99.90
62904;DHT22;49000;50.698;13.322;2023-02-28T00:40:29;-4.50;99.90
62904;DHT22;49000;50.698;13.322;2023-02-28T00:42:55;-3.90;99.90
62904;DHT22;49000;50.698;13.322;2023-02-28T00:45:20;-3.90;99.90
62904;DHT22;49000;50.698;13.322;2023-02-28T00:47:46;-4.30;99.90
62904;DHT22;49000;50.698;13.322;2023-02-28T00:50:18;-4.20;99.90
62904;DHT22;49000;50.698;13.322;2023-02-28T00:52:44;-3.90;99.90
62904;DHT22;49000;50.698;13.322;2023-02-28T00:55:09;-4.40;99.90
62904;DHT22;49000;50.698;13.322;2023-02-28T00:57:35;-4.00;99.90
62904;DHT22;49000;50.698;13.322;2023-02-28T01:00:01;-4.30;99.90
62904;DHT22;49000;50.698;13.322;2023-02-28T01:02:26;-3.90;99.90
62904;DHT22;49000;50.698;13.322;2023-02-28T01:04:52;-3.60;99.90
62904;DHT22;49000;50.698;13.322;2023-02-28T01:07:17;-3.80;99.90
62904;DHT22;49000;50.698;13.322;2023-02-28T01:09:43;-3.70;99.90
62904;DHT22;49000;50.698;13.322;2023-02-28T01:12:09;-4.00;99.90
62904;DHT22;49000;50.698;13.322;2023-02-28T01:14:34;-3.70;99.90
62904;DHT22;49000;50.698;13.322;2023-02-28T01:17:00;-3.70;99.90
62904;DHT22;49000;50.698;13.322;2023-02-28T01:19:26;-3.60;99.90
62904;DHT22;49000;50.698;13.322;2023-02-28T01:21:51;-3.70;99.90
62904;DHT22;49000;50.698;13.322;2023-02-28T01:24:17;-3.80;99.90
62904;DHT22;49000;50.698;13.322;2023-02-28T01:26:42;-4.10;99.90
62904;DHT22;49000;50.698;13.322;2023-02-28T01:29:08;-3.60;99.90
62904;DHT22;49000;50.698;13.322;2023-02-28T01:31:34;-3.90;99.90
62904;DHT22;49000;50.698;13.322;2023-02-28T01:33:59;-3.80;99.90
62904;DHT22;49000;50.698;13.322;2023-02-28T01:36:25;-3.60;99.90
62904;DHT22;49000;50.698;13.322;2023-02-28T01:38:51;-3.60;99.90
62904;DHT22;49000;50.698;13.322;2023-02-28T01:41:25;-3.70;99.90
62904;DHT22;49000;50.698;13.322;2023-02-28T01:43:55;-3.70;99.90
62904;DHT22;49000;50.698;13.322;2023-02-28T01:46:21;-3.80;99.90
62904;DHT22;49000;50.698;13.322;2023-02-28T01:48:52;-3.60;99.90
62904;DHT22;49000;50.698;13.322;2023-02-28T01:51:22;-3.60;99.90
62904;DHT22;49000;50.698;13.322;2023-02-28T01:53:55;-3.70;99.90
62904;DHT22;49000;50.698;13.322;2023-02-28T01:56:25;-3.70;99.90
62904;DHT22;49000;50.698;13.322;2023-02-28T01:58:53;-3.40;99.90
62904;DHT22;49000;50.698;13.322;2023-02-28T02:01:20;-3.40;99.90
62904;DHT22;49000;50.698;13.322;2023-02-28T02:03:51;-3.30;99.90
62904;DHT22;49000;50.698;13.322;2023-02-28T02:06:25;-3.50;99.90
62904;DHT22;49000;50.698;13.322;2023-02-28T02:08:52;-3.40;99.90
62904;DHT22;49000;50.698;13.322;2023-02-28T02:11:18;-3.70;99.90
62904;DHT22;49000;50.698;13.322;2023-02-28T02:14:07;-3.30;99.90
62904;DHT22;49000;50.698;13.322;2023-02-28T02:16:52;-3.10;99.90
62904;DHT22;49000;50.698;13.322;2023-02-28T02:30:48;-3.20;99.90
62904;DHT22;49000;50.698;13.322;2023-02-28T02:33:59;-3.30;99.90
62904;DHT22;49000;50.698;13.322;2023-02-28T02:36:33;-3.10;99.90
62904;DHT22;49000;50.698;13.322;2023-02-28T02:39:14;-3.30;99.90
62904;DHT22;49000;50.698;13.322;2023-02-28T02:41:51;-3.30;99.90
62904;DHT22;49000;50.698;13.322;2023-02-28T02:44:27;-3.10;99.90
62904;DHT22;49000;50.698;13.322;2023-02-28T02:46:59;-3.50;99.90
62904;DHT22;49000;50.698;13.322;2023-02-28T02:49:33;-3.20;99.90
62904;DHT22;49000;50.698;13.322;2023-02-28T02:52:03;-3.80;99.90
62904;DHT22;49000;50.698;13.322;2023-02-28T02:54:34;-3.20;99.90
62904;DHT22;49000;50.698;13.322;2023-02-28T02:57:07;-3.70;99.90
62904;DHT22;49000;50.698;13.322;2023-02-28T02:59:35;-3.40;99.90
62904;DHT22;49000;50.698;13.322;2023-02-28T03:02:03;-3.60;99.90
62904;DHT22;49000;50.698;13.322;2023-02-28T03:04:33;-3.50;99.90
62904;DHT22;49000;50.698;13.322;2023-02-28T03:07:01;-3.50;99.90
62904;DHT22;49000;50.698;13.322;2023-02-28T03:09:27;-3.70;99.90
62904;DHT22;49000;50.698;13.322;2023-02-28T03:11:55;-4.00;99.90
62904;DHT22;49000;50.698;13.322;2023-02-28T03:14:31;-3.70;99.90
62904;DHT22;49000;50.698;13.322;2023-02-28T03:20:05;-3.90;99.90
62904;DHT22;49000;50.698;13.322;2023-02-28T03:22:45;-4.10;99.90
62904;DHT22;49000;50.698;13.322;2023-02-28T03:25:22;-4.20;99.90
62904;DHT22;49000;50.698;13.322;2023-02-28T03:28:11;-4.20;99.90
62904;DHT22;49000;50.698;13.322;2023-02-28T03:30:52;-4.50;98.70
62904;DHT22;49000;50.698;13.322;2023-02-28T03:33:23;-4.40;93.90
62904;DHT22;49000;50.698;13.322;2023-02-28T03:36:02;-5.10;87.80
62904;DHT22;49000;50.698;13.322;2023-02-28T03:38:53;-5.00;80.40
62904;DHT22;49000;50.698;13.322;2023-02-28T03:41:23;-4.70;78.10
62904;DHT22;49000;50.698;13.322;2023-02-28T03:44:06;-5.00;70.30
62904;DHT22;49000;50.698;13.322;2023-02-28T03:46:37;-5.00;65.90
62904;DHT22;49000;50.698;13.322;2023-02-28T03:49:16;-5.20;62.90
62904;DHT22;49000;50.698;13.322;2023-02-28T03:51:43;-5.40;60.60
62904;DHT22;49000;50.698;13.322;2023-02-28T03:54:15;-5.50;59.80
62904;DHT22;49000;50.698;13.322;2023-02-28T03:56:48;-5.50;56.90
62904;DHT22;49000;50.698;13.322;2023-02-28T03:59:28;-5.50;57.90
62904;DHT22;49000;50.698;13.322;2023-02-28T04:01:57;-5.60;57.10
62904;DHT22;49000;50.698;13.322;2023-02-28T04:04:24;-5.70;61.40
62904;DHT22;49000;50.698;13.322;2023-02-28T04:06:52;-5.80;60.60
62904;DHT22;49000;50.698;13.322;2023-02-28T04:09:25;-5.90;60.20
62904;DHT22;49000;50.698;13.322;2023-02-28T04:11:52;-6.00;59.80
62904;DHT22;49000;50.698;13.322;2023-02-28T04:14:18;-6.20;58.20
62904;DHT22;49000;50.698;13.322;2023-02-28T04:16:44;-6.30;57.80
62904;DHT22;49000;50.698;13.322;2023-02-28T04:19:12;-6.40;58.30
62904;DHT22;49000;50.698;13.322;2023-02-28T04:21:40;-6.70;59.40
62904;DHT22;49000;50.698;13.322;2023-02-28T04:24:07;-6.50;59.50
62904;DHT22;49000;50.698;13.322;2023-02-28T04:26:35;-6.70;59.50
62904;DHT22;49000;50.698;13.322;2023-02-28T04:29:03;-6.40;59.50
62904;DHT22;49000;50.698;13.322;2023-02-28T04:31:29;-6.70;57.30
62904;DHT22;49000;50.698;13.322;2023-02-28T04:33:54;-6.70;58.40
62904;DHT22;49000;50.698;13.322;2023-02-28T04:36:20;-6.60;55.70
62904;DHT22;49000;50.698;13.322;2023-02-28T04:38:46;-6.90;53.70
62904;DHT22;49000;50.698;13.322;2023-02-28T04:41:12;-6.80;53.40
62904;DHT22;49000;50.698;13.322;2023-02-28T04:43:38;-6.70;53.40
62904;DHT22;49000;50.698;13.322;2023-02-28T04:46:05;-7.00;52.70
62904;DHT22;49000;50.698;13.322;2023-02-28T04:48:32;-7.00;52.90
62904;DHT22;49000;50.698;13.322;2023-02-28T04:51:09;-7.10;53.10
62904;DHT22;49000;50.698;13.322;2023-02-28T04:53:37;-7.00;55.80
62904;DHT22;49000;50.698;13.322;2023-02-28T04:56:03;-7.20;54.50
62904;DHT22;49000;50.698;13.322;2023-02-28T04:58:29;-7.20;53.30
62904;DHT22;49000;50.698;13.322;2023-02-28T05:01:02;-7.20;51.80
62904;DHT22;49000;50.698;13.322;2023-02-28T05:03:28;-7.20;51.10
62904;DHT22;49000;50.698;13.322;2023-02-28T05:05:53;-7.20;51.30
62904;DHT22;49000;50.698;13.322;2023-02-28T05:08:19;-7.10;50.70
62904;DHT22;49000;50.698;13.322;2023-02-28T05:10:44;-7.20;50.10
62904;DHT22;49000;50.698;13.322;2023-02-28T05:13:13;-7.10;47.60
62904;DHT22;49000;50.698;13.322;2023-02-28T05:15:38;-7.40;47.70
62904;DHT22;49000;50.698;13.322;2023-02-28T05:18:04;-7.30;49.40
62904;DHT22;49000;50.698;13.322;2023-02-28T05:20:29;-7.30;50.20
62904;DHT22;49000;50.698;13.322;2023-02-28T05:22:56;-7.60;51.30
62904;DHT22;49000;50.698;13.322;2023-02-28T05:25:23;-7.60;51.50
62904;DHT22;49000;50.698;13.322;2023-02-28T05:27:48;-7.90;49.70
62904;DHT22;49000;50.698;13.322;2023-02-28T05:30:14;-7.50;49.20
62904;DHT22;49000;50.698;13.322;2023-02-28T05:32:40;-7.50;49.30
62904;DHT22;49000;50.698;13.322;2023-02-28T05:35:12;-7.50;50.40
62904;DHT22;49000;50.698;13.322;2023-02-28T05:37:38;-7.60;50.90
62904;DHT22;49000;50.698;13.322;2023-02-28T05:40:07;-7.90;50.20
62904;DHT22;49000;50.698;13.322;2023-02-28T05:42:36;-7.90;50.90
62904;DHT22;49000;50.698;13.322;2023-02-28T05:45:03;-7.70;53.20
62904;DHT22;49000;50.698;13.322;2023-02-28T05:47:29;-8.00;56.50
62904;DHT22;49000;50.698;13.322;2023-02-28T05:49:54;-7.90;57.60
62904;DHT22;49000;50.698;13.322;2023-02-28T05:52:20;-7.70;59.60
62904;DHT22;49000;50.698;13.322;2023-02-28T05:54:46;-7.90;59.70
62904;DHT22;49000;50.698;13.322;2023-02-28T05:57:12;-7.70;63.10
62904;DHT22;49000;50.698;13.322;2023-02-28T05:59:37;-7.80;66.80
62904;DHT22;49000;50.698;13.322;2023-02-28T06:02:06;-8.30;66.30
62904;DHT22;49000;50.698;13.322;2023-02-28T06:04:31;-7.60;67.20
62904;DHT22;49000;50.698;13.322;2023-02-28T06:06:57;-7.70;67.40
62904;DHT22;49000;50.698;13.322;2023-02-28T06:09:23;-7.50;70.70
62904;DHT22;49000;50.698;13.322;2023-02-28T06:11:48;-8.10;69.10
62904;DHT22;49000;50.698;13.322;2023-02-28T06:14:18;-7.50;68.80
62904;DHT22;49000;50.698;13.322;2023-02-28T06:16:44;-7.40;68.50
62904;DHT22;49000;50.698;13.322;2023-02-28T06:19:10;-7.60;67.60
62904;DHT22;49000;50.698;13.322;2023-02-28T06:21:36;-7.50;64.70
62904;DHT22;49000;50.698;13.322;2023-02-28T06:24:03;-8.00;63.40
62904;DHT22;49000;50.698;13.322;2023-02-28T06:26:29;-7.40;62.00
62904;DHT22;49000;50.698;13.322;2023-02-28T06:28:55;-7.40;60.80
62904;DHT22;49000;50.698;13.322;2023-02-28T06:31:21;-7.40;60.00
62904;DHT22;49000;50.698;13.322;2023-02-28T06:33:47;-7.60;57.00
62904;DHT22;49000;50.698;13.322;2023-02-28T06:36:14;-7.50;56.60
62904;DHT22;49000;50.698;13.322;2023-02-28T06:38:40;-7.60;56.50
62904;DHT22;49000;50.698;13.322;2023-02-28T06:41:06;-7.40;58.40
62904;DHT22;49000;50.698;13.322;2023-02-28T06:43:35;-7.50;60.00
62904;DHT22;49000;50.698;13.322;2023-02-28T06:46:03;-7.30;59.50
62904;DHT22;49000;50.698;13.322;2023-02-28T06:48:29;-7.50;60.40
62904;DHT22;49000;50.698;13.322;2023-02-28T06:53:28;-7.40;62.00
62904;DHT22;49000;50.698;13.322;2023-02-28T06:55:53;-8.00;62.40
62904;DHT22;49000;50.698;13.322;2023-02-28T06:58:19;-7.70;64.10
62904;DHT22;49000;50.698;13.322;2023-02-28T07:00:45;-7.10;62.80
62904;DHT22;49000;50.698;13.322;2023-02-28T07:03:12;-7.20;60.80
62904;DHT22;49000;50.698;13.322;2023-02-28T07:05:38;-7.60;60.20
62904;DHT22;49000;50.698;13.322;2023-02-28T07:08:05;-7.10;60.50
62904;DHT22;49000;50.698;13.322;2023-02-28T07:10:32;-7.70;59.90
62904;DHT22;49000;50.698;13.322;2023-02-28T07:12:58;-7.10;61.00
62904;DHT22;49000;50.698;13.322;2023-02-28T07:15:23;-7.40;60.80
62904;DHT22;49000;50.698;13.322;2023-02-28T07:17:49;-7.10;59.20
62904;DHT22;49000;50.698;13.322;2023-02-28T07:20:14;-7.00;57.10
62904;DHT22;49000;50.698;13.322;2023-02-28T07:22:40;-7.00;57.10
62904;DHT22;49000;50.698;13.322;2023-02-28T07:25:07;-7.70;56.30
62904;DHT22;49000;50.698;13.322;2023-02-28T07:27:33;-7.00;56.30
62904;DHT22;49000;50.698;13.322;2023-02-28T07:29:59;-7.50;57.30
62904;DHT22;49000;50.698;13.322;2023-02-28T07:32:27;-7.10;55.50
62904;DHT22;49000;50.698;13.322;2023-02-28T07:34:53;-6.80;55.40
62904;DHT22;49000;50.698;13.322;2023-02-28T07:37:19;-7.00;56.00
62904;DHT22;49000;50.698;13.322;2023-02-28T07:39:45;-7.00;56.40
62904;DHT22;49000;50.698;13.322;2023-02-28T07:42:11;-6.80;57.00
62904;DHT22;49000;50.698;13.322;2023-02-28T07:44:38;-7.00;55.60
62904;DHT22;49000;50.698;13.322;2023-02-28T07:47:09;-6.80;57.00
62904;DHT22;49000;50.698;13.322;2023-02-28T07:49:36;-6.50;57.80
62904;DHT22;49000;50.698;13.322;2023-02-28T07:52:03;-6.70;57.50
62904;DHT22;49000;50.698;13.322;2023-02-28T07:54:29;-6.40;57.70
62904;DHT22;49000;50.698;13.322;2023-02-28T07:56:54;-6.60;56.90
62904;DHT22;49000;50.698;13.322;2023-02-28T07:59:20;-6.50;59.00
62904;DHT22;49000;50.698;13.322;2023-02-28T08:01:45;-6.20;56.90
62904;DHT22;49000;50.698;13.322;2023-02-28T08:04:11;-6.20;57.30
62904;DHT22;49000;50.698;13.322;2023-02-28T08:06:36;-6.10;57.80
62904;DHT22;49000;50.698;13.322;2023-02-28T08:09:02;-6.10;58.20
62904;DHT22;49000;50.698;13.322;2023-02-28T08:11:27;-5.70;59.60
62904;DHT22;49000;50.698;13.322;2023-02-28T08:13:54;-5.60;60.20
62904;DHT22;49000;50.698;13.322;2023-02-28T08:16:20;-5.50;62.00
62904;DHT22;49000;50.698;13.322;2023-02-28T08:18:48;-5.60;63.80
62904;DHT22;49000;50.698;13.322;2023-02-28T08:21:14;-5.30;66.10
62904;DHT22;49000;50.698;13.322;2023-02-28T08:23:40;-5.30;66.50
62904;DHT22;49000;50.698;13.322;2023-02-28T08:26:06;-4.90;67.70
62904;DHT22;49000;50.698;13.322;2023-02-28T08:28:31;-4.60;69.90
62904;DHT22;49000;50.698;13.322;2023-02-28T08:30:57;-4.40;70.80
62904;DHT22;49000;50.698;13.322;2023-02-28T08:33:24;-4.00;68.90
62904;DHT22;49000;50.698;13.322;2023-02-28T08:35:56;-3.40;68.30
62904;DHT22;49000;50.698;13.322;2023-02-28T08:38:23;-3.40;66.60
62904;DHT22;49000;50.698;13.322;2023-02-28T08:40:48;-3.00;62.80
62904;DHT22;49000;50.698;13.322;2023-02-28T08:43:14;-2.60;60.00
62904;DHT22;49000;50.698;13.322;2023-02-28T08:45:39;-1.90;58.70
62904;DHT22;49000;50.698;13.322;2023-02-28T08:48:05;-1.50;54.50
62904;DHT22;49000;50.698;13.322;2023-02-28T08:50:31;-0.90;50.50
62904;DHT22;49000;50.698;13.322;2023-02-28T08:52:56;-1.20;46.70
62904;DHT22;49000;50.698;13.322;2023-02-28T08:55:22;-0.60;45.40
62904;DHT22;49000;50.698;13.322;2023-02-28T08:57:47;-1.00;45.30
62904;DHT22;49000;50.698;13.322;2023-02-28T09:00:13;-0.50;43.80
62904;DHT22;49000;50.698;13.322;2023-02-28T09:02:39;-0.40;44.00
62904;DHT22;49000;50.698;13.322;2023-02-28T09:05:06;0.00;44.90
62904;DHT22;49000;50.698;13.322;2023-02-28T09:07:31;0.20;44.50
62904;DHT22;49000;50.698;13.322;2023-02-28T09:09:57;0.40;42.90
62904;DHT22;49000;50.698;13.322;2023-02-28T09:12:27;0.50;41.30
62904;DHT22;49000;50.698;13.322;2023-02-28T09:14:53;1.00;37.30
62904;DHT22;49000;50.698;13.322;2023-02-28T09:17:19;0.80;35.30
62904;DHT22;49000;50.698;13.322;2023-02-28T09:19:45;0.80;36.00
62904;DHT22;49000;50.698;13.322;2023-02-28T09:22:12;1.10;35.20
62904;DHT22;49000;50.698;13.322;2023-02-28T09:24:38;1.60;33.00
62904;DHT22;49000;50.698;13.322;2023-02-28T09:27:04;1.90;31.40
62904;DHT22;49000;50.698;13.322;2023-02-28T09:29:31;1.80;29.20
62904;DHT22;49000;50.698;13.322;2023-02-28T09:31:57;2.50;27.30
62904;DHT22;49000;50.698;13.322;2023-02-28T09:34:26;2.70;27.60
62904;DHT22;49000;50.698;13.322;2023-02-28T09:36:52;2.60;27.50
62904;DHT22;49000;50.698;13.322;2023-02-28T09:39:20;2.90;25.40
62904;DHT22;49000;50.698;13.322;2023-02-28T09:41:49;3.10;24.90
62904;DHT22;49000;50.698;13.322;2023-02-28T09:44:31;3.60;24.00
62904;DHT22;49000;50.698;13.322;2023-02-28T09:47:01;3.70;23.80
62904;DHT22;49000;50.698;13.322;2023-02-28T09:49:39;3.50;22.10
62904;DHT22;49000;50.698;13.322;2023-02-28T09:52:15;3.90;22.30
62904;DHT22;49000;50.698;13.322;2023-02-28T09:54:42;4.00;21.10
62904;DHT22;49000;50.698;13.322;2023-02-28T09:57:29;4.00;19.80
62904;DHT22;49000;50.698;13.322;2023-02-28T10:04:59;4.60;21.10
62904;DHT22;49000;50.698;13.322;2023-02-28T10:12:44;4.60;19.00
62904;DHT22;49000;50.698;13.322;2023-02-28T10:15:15;5.00;20.10
62904;DHT22;49000;50.698;13.322;2023-02-28T10:17:44;5.10;18.60
62904;DHT22;49000;50.698;13.322;2023-02-28T10:20:17;4.80;18.60
62904;DHT22;49000;50.698;13.322;2023-02-28T10:22:57;4.90;16.60
62904;DHT22;49000;50.698;13.322;2023-02-28T10:25:26;5.60;16.70
62904;DHT22;49000;50.698;13.322;2023-02-28T10:27:54;5.50;16.50
62904;DHT22;49000;50.698;13.322;2023-02-28T10:30:21;5.00;17.20
62904;DHT22;49000;50.698;13.322;2023-02-28T10:32:50;4.40;18.60
62904;DHT22;49000;50.698;13.322;2023-02-28T10:35:24;4.80;17.90
62904;DHT22;49000;50.698;13.322;2023-02-28T10:37:58;4.90;18.30
62904;DHT22;49000;50.698;13.322;2023-02-28T10:40:29;4.40;15.60
62904;DHT22;49000;50.698;13.322;2023-02-28T10:45:28;4.90;16.10
62904;DHT22;49000;50.698;13.322;2023-02-28T10:48:01;4.40;16.30
62904;DHT22;49000;50.698;13.322;2023-02-28T10:58:27;4.60;17.10
62904;DHT22;49000;50.698;13.322;2023-02-28T11:00:54;5.00;17.10
62904;DHT22;49000;50.698;13.322;2023-02-28T11:03:34;5.20;17.30
62904;DHT22;49000;50.698;13.322;2023-02-28T11:06:06;4.70;18.30
62904;DHT22;49000;50.698;13.322;2023-02-28T11:08:32;4.50;17.00
62904;DHT22;49000;50.698;13.322;2023-02-28T11:11:03;4.50;17.70
62904;DHT22;49000;50.698;13.322;2023-02-28T11:13:35;4.30;18.00
62904;DHT22;49000;50.698;13.322;2023-02-28T11:16:04;4.60;18.30
62904;DHT22;49000;50.698;13.322;2023-02-28T11:18:53;4.90;18.50
62904;DHT22;49000;50.698;13.322;2023-02-28T11:21:27;4.90;17.70
62904;DHT22;49000;50.698;13.322;2023-02-28T11:24:28;4.60;18.30
62904;DHT22;49000;50.698;13.322;2023-02-28T11:26:56;5.00;18.60
62904;DHT22;49000;50.698;13.322;2023-02-28T11:29:23;4.80;20.10
62904;DHT22;49000;50.698;13.322;2023-02-28T11:34:34;4.50;18.90
62904;DHT22;49000;50.698;13.322;2023-02-28T11:37:01;4.60;18.50
62904;DHT22;49000;50.698;13.322;2023-02-28T11:39:30;4.90;19.90
62904;DHT22;49000;50.698;13.322;2023-02-28T11:42:23;4.60;20.50
62904;DHT22;49000;50.698;13.322;2023-02-28T11:51:21;5.20;19.60
62904;DHT22;49000;50.698;13.322;2023-02-28T11:53:55;5.50;17.90
62904;DHT22;49000;50.698;13.322;2023-02-28T11:56:44;5.40;18.10
62904;DHT22;49000;50.698;13.322;2023-02-28T12:07:35;6.30;14.50
62904;DHT22;49000;50.698;13.322;2023-02-28T12:10:25;6.30;13.00
62904;DHT22;49000;50.698;13.322;2023-02-28T12:15:47;6.80;14.70
62904;DHT22;49000;50.698;13.322;2023-02-28T12:18:33;7.20;13.60
62904;DHT22;49000;50.698;13.322;2023-02-28T12:21:31;7.20;13.40
62904;DHT22;49000;50.698;13.322;2023-02-28T12:26:53;7.80;11.20
62904;DHT22;49000;50.698;13.322;2023-02-28T12:29:26;8.00;10.30
62904;DHT22;49000;50.698;13.322;2023-02-28T12:32:04;8.10;10.70
62904;DHT22;49000;50.698;13.322;2023-02-28T12:34:35;8.40;11.00
62904;DHT22;49000;50.698;13.322;2023-02-28T12:37:10;8.40;10.80
62904;DHT22;49000;50.698;13.322;2023-02-28T12:39:47;8.10;10.10
62904;DHT22;49000;50.698;13.322;2023-02-28T12:42:24;7.60;11.10
62904;DHT22;49000;50.698;13.322;2023-02-28T12:44:58;7.80;11.80
62904;DHT22;49000;50.698;13.322;2023-02-28T12:47:24;8.20;11.60
62904;DHT22;49000;50.698;13.322;2023-02-28T12:49:57;8.40;11.50
62904;DHT22;49000;50.698;13.322;2023-02-28T12:53:00;8.30;10.80
62904;DHT22;49000;50.698;13.322;2023-02-28T12:55:49;8.20;11.60
62904;DHT22;49000;50.698;13.322;2023-02-28T12:58:47;8.10;10.60
62904;DHT22;49000;50.698;13.322;2023-02-28T13:04:42;8.40;8.10
62904;DHT22;49000;50.698;13.322;2023-02-28T13:10:04;8.50;8.10
62904;DHT22;49000;50.698;13.322;2023-02-28T13:12:32;8.60;9.60
62904;DHT22;49000;50.698;13.322;2023-02-28T13:15:06;8.30;9.70
62904;DHT22;49000;50.698;13.322;2023-02-28T13:17:38;7.70;10.30
62904;DHT22;49000;50.698;13.322;2023-02-28T13:20:13;8.30;11.00
62904;DHT22;49000;50.698;13.322;2023-02-28T13:22:44;8.40;11.70
62904;DHT22;49000;50.698;13.322;2023-02-28T13:27:53;8.40;11.00
62904;DHT22;49000;50.698;13.322;2023-02-28T13:38:58;8.70;11.60
62904;DHT22;49000;50.698;13.322;2023-02-28T13:44:00;8.60;10.60
62904;DHT22;49000;50.698;13.322;2023-02-28T13:46:27;8.70;12.50
62904;DHT22;49000;50.698;13.322;2023-02-28T13:48:52;8.70;11.40
62904;DHT22;49000;50.698;13.322;2023-02-28T13:51:40;8.40;12.50
62904;DHT22;49000;50.698;13.322;2023-02-28T13:57:27;8.30;9.40
62904;DHT22;49000;50.698;13.322;2023-02-28T14:03:05;8.50;12.40
62904;DHT22;49000;50.698;13.322;2023-02-28T14:05:33;8.60;10.30
62904;DHT22;49000;50.698;13.322;2023-02-28T14:08:06;8.60;11.10
62904;DHT22;49000;50.698;13.322;2023-02-28T14:10:39;8.70;11.40
62904;DHT22;49000;50.698;13.322;2023-02-28T14:15:55;8.80;8.20
62904;DHT22;49000;50.698;13.322;2023-02-28T14:31:38;9.10;10.40
62904;DHT22;49000;50.698;13.322;2023-02-28T14:36:58;9.50;8.70
62904;DHT22;49000;50.698;13.322;2023-02-28T14:39:27;9.50;9.40
62904;DHT22;49000;50.698;13.322;2023-02-28T14:41:56;9.40;8.60
62904;DHT22;49000;50.698;13.322;2023-02-28T14:44:26;9.30;8.50
62904;DHT22;49000;50.698;13.322;2023-02-28T14:46:54;9.50;8.70
62904;DHT22;49000;50.698;13.322;2023-02-28T14:51:46;9.20;5.50
62904;DHT22;49000;50.698;13.322;2023-02-28T14:54:15;9.00;8.80
62904;DHT22;49000;50.698;13.322;2023-02-28T14:56:41;9.00;10.00
62904;DHT22;49000;50.698;13.322;2023-02-28T14:59:28;9.10;9.20
62904;DHT22;49000;50.698;13.322;2023-02-28T15:02:19;9.20;9.80
62904;DHT22;49000;50.698;13.322;2023-02-28T15:04:56;9.20;9.40
62904;DHT22;49000;50.698;13.322;2023-02-28T15:07:22;9.10;9.20
62904;DHT22;49000;50.698;13.322;2023-02-28T15:10:23;9.10;8.40
62904;DHT22;49000;50.698;13.322;2023-02-28T15:12:57;9.00;8.60
62904;DHT22;49000;50.698;13.322;2023-02-28T15:15:41;8.70;9.60
62904;DHT22;49000;50.698;13.322;2023-02-28T15:18:14;8.10;8.60
62904;DHT22;49000;50.698;13.322;2023-02-28T15:20:42;7.80;10.40
62904;DHT22;49000;50.698;13.322;2023-02-28T15:23:09;7.50;11.20
62904;DHT22;49000;50.698;13.322;2023-02-28T15:25:36;7.00;11.40
62904;DHT22;49000;50.698;13.322;2023-02-28T15:28:01;7.00;11.20
62904;DHT22;49000;50.698;13.322;2023-02-28T15:30:29;6.90;10.80
62904;DHT22;49000;50.698;13.322;2023-02-28T15:35:44;6.80;12.70
62904;DHT22;49000;50.698;13.322;2023-02-28T15:38:25;5.90;11.70
62904;DHT22;49000;50.698;13.322;2023-02-28T15:40:53;6.00;12.90
62904;DHT22;49000;50.698;13.322;2023-02-28T15:43:32;5.90;13.20
62904;DHT22;49000;50.698;13.322;2023-02-28T15:46:02;5.90;13.50
62904;DHT22;49000;50.698;13.322;2023-02-28T15:48:34;5.50;14.90
62904;DHT22;49000;50.698;13.322;2023-02-28T15:53:48;5.20;15.00
62904;DHT22;49000;50.698;13.322;2023-02-28T15:56:57;4.50;16.00
62904;DHT22;49000;50.698;13.322;2023-02-28T15:59:27;4.60;17.30
62904;DHT22;49000;50.698;13.322;2023-02-28T16:04:27;4.10;17.00
62904;DHT22;49000;50.698;13.322;2023-02-28T16:09:24;4.50;17.20
62904;DHT22;49000;50.698;13.322;2023-02-28T16:11:55;4.30;16.50
62904;DHT22;49000;50.698;13.322;2023-02-28T16:14:25;4.00;17.30
62904;DHT22;49000;50.698;13.322;2023-02-28T16:17:07;4.20;17.90
62904;DHT22;49000;50.698;13.322;2023-02-28T16:19:39;3.90;17.80
62904;DHT22;49000;50.698;13.322;2023-02-28T16:22:04;3.60;17.80
62904;DHT22;49000;50.698;13.322;2023-02-28T16:24:29;3.60;18.80
62904;DHT22;49000;50.698;13.322;2023-02-28T16:26:56;3.10;18.70
62904;DHT22;49000;50.698;13.322;2023-02-28T16:29:31;3.10;19.30
62904;DHT22;49000;50.698;13.322;2023-02-28T16:31:57;2.90;20.00
62904;DHT22;49000;50.698;13.322;2023-02-28T16:34:24;2.30;20.00
62904;DHT22;49000;50.698;13.322;2023-02-28T16:36:50;2.30;19.50
62904;DHT22;49000;50.698;13.322;2023-02-28T16:39:16;1.90;19.90
62904;DHT22;49000;50.698;13.322;2023-02-28T16:41:43;1.50;20.90
62904;DHT22;49000;50.698;13.322;2023-02-28T16:47:13;1.80;21.30
62904;DHT22;49000;50.698;13.322;2023-02-28T16:49:38;1.30;21.80
62904;DHT22;49000;50.698;13.322;2023-02-28T16:52:07;1.50;23.30
62904;DHT22;49000;50.698;13.322;2023-02-28T16:54:33;1.40;23.40
62904;DHT22;49000;50.698;13.322;2023-02-28T16:56:59;1.20;23.80
62904;DHT22;49000;50.698;13.322;2023-02-28T16:59:31;0.80;23.70
62904;DHT22;49000;50.698;13.322;2023-02-28T17:01:57;1.00;25.30
62904;DHT22;49000;50.698;13.322;2023-02-28T17:04:26;0.70;25.50
62904;DHT22;49000;50.698;13.322;2023-02-28T17:06:52;0.70;26.70
62904;DHT22;49000;50.698;13.322;2023-02-28T17:09:22;0.90;26.40
62904;DHT22;49000;50.698;13.322;2023-02-28T17:11:48;0.60;26.40
62904;DHT22;49000;50.698;13.322;2023-02-28T17:14:14;0.70;26.80
62904;DHT22;49000;50.698;13.322;2023-02-28T17:16:41;0.20;26.40
62904;DHT22;49000;50.698;13.322;2023-02-28T17:19:12;0.50;26.60
62904;DHT22;49000;50.698;13.322;2023-02-28T17:21:39;0.50;26.70
62904;DHT22;49000;50.698;13.322;2023-02-28T17:24:06;0.20;27.60
62904;DHT22;49000;50.698;13.322;2023-02-28T17:26:32;0.40;27.70
62904;DHT22;49000;50.698;13.322;2023-02-28T17:28:58;-0.30;27.40
62904;DHT22;49000;50.698;13.322;2023-02-28T17:31:25;-0.30;29.00
62904;DHT22;49000;50.698;13.322;2023-02-28T17:33:51;0.00;30.00
62904;DHT22;49000;50.698;13.322;2023-02-28T17:36:22;0.10;30.70
62904;DHT22;49000;50.698;13.322;2023-02-28T17:38:48;-0.50;30.20
62904;DHT22;49000;50.698;13.322;2023-02-28T17:41:13;0.00;29.90